createdAt,value
2017-02-17T00:00:54.916Z,0
2017-02-17T00:01:54.906Z,0
2017-02-17T00:02:54.935Z,0
2017-02-17T00:03:54.938Z,0
2017-02-17T00:04:54.955Z,0
2017-02-17T00:05:54.578Z,0
2017-02-17T00:06:54.991Z,0
2017-02-17T00:07:54.683Z,0
2017-02-17T00:08:55.006Z,0
2017-02-17T00:09:55.014Z,0
2017-02-17T00:10:55.028Z,0
2017-02-17T00:11:55.042Z,0
2017-02-17T00:12:54.671Z,0
2017-02-17T00:13:55.064Z,0
2017-02-17T00:14:55.086Z,0
2017-02-17T00:15:55.116Z,0
2017-02-17T00:16:55.135Z,0
2017-02-17T00:17:55.356Z,0
2017-02-17T00:18:55.164Z,0
2017-02-17T00:19:55.299Z,0
2017-02-17T00:20:55.310Z,0
2017-02-17T00:21:55.316Z,0
2017-02-17T00:22:55.316Z,0
2017-02-17T00:23:55.349Z,0
2017-02-17T00:24:55.337Z,0
2017-02-17T00:25:55.369Z,0
2017-02-17T00:26:55.375Z,0
2017-02-17T00:27:55.512Z,0
2017-02-17T00:28:55.384Z,0
2017-02-17T00:29:55.395Z,0
2017-02-17T00:30:55.402Z,0
2017-02-17T00:31:55.411Z,0
2017-02-17T00:32:55.451Z,0
2017-02-17T00:33:55.480Z,0
2017-02-17T00:34:55.490Z,0
2017-02-17T00:35:55.499Z,0
2017-02-17T00:36:55.493Z,0
2017-02-17T00:37:55.503Z,0
2017-02-17T00:38:55.512Z,0
2017-02-17T00:39:55.518Z,0
2017-02-17T00:40:55.532Z,0
2017-02-17T00:41:55.531Z,0
2017-02-17T00:42:55.537Z,0
2017-02-17T00:43:55.171Z,0
2017-02-17T00:44:55.593Z,0
2017-02-17T00:45:55.266Z,0
2017-02-17T00:46:55.671Z,0
2017-02-17T00:47:55.307Z,0
2017-02-17T00:48:55.687Z,0
2017-02-17T00:49:55.707Z,0
2017-02-17T00:50:55.716Z,0
2017-02-17T00:51:55.867Z,0
2017-02-17T00:52:55.875Z,0
2017-02-17T00:53:55.886Z,0
2017-02-17T00:54:55.895Z,0
2017-02-17T00:55:55.831Z,0
2017-02-17T00:56:55.848Z,0
2017-02-17T00:57:55.954Z,0
2017-02-17T00:58:55.957Z,0
2017-02-17T00:59:55.968Z,0
2017-02-17T01:00:55.966Z,0
2017-02-17T01:01:55.976Z,0
2017-02-17T01:02:55.994Z,0
2017-02-17T01:03:55.998Z,0
2017-02-17T01:04:56.011Z,0
2017-02-17T01:05:56.009Z,0
2017-02-17T01:06:56.015Z,0
2017-02-17T01:07:56.021Z,0
2017-02-17T01:08:56.036Z,0
2017-02-17T01:09:56.045Z,0
2017-02-17T01:10:56.007Z,0
2017-02-17T01:11:56.033Z,0
2017-02-17T01:12:56.024Z,0
2017-02-17T01:13:56.043Z,0
2017-02-17T01:14:56.044Z,0
2017-02-17T01:15:56.053Z,0
2017-02-17T01:16:56.058Z,0
2017-02-17T01:17:56.065Z,0
2017-02-17T01:18:56.074Z,0
2017-02-17T01:19:56.086Z,0
2017-02-17T01:20:56.087Z,0
2017-02-17T01:21:56.095Z,0
2017-02-17T01:22:56.131Z,0
2017-02-17T01:23:56.136Z,0
2017-02-17T01:24:56.136Z,0
2017-02-17T01:25:56.178Z,0
2017-02-17T01:26:56.166Z,0
2017-02-17T01:27:56.209Z,0
2017-02-17T01:28:56.205Z,0
2017-02-17T01:29:56.249Z,0
2017-02-17T01:30:56.249Z,0
2017-02-17T01:31:56.259Z,0
2017-02-17T01:32:56.273Z,0
2017-02-17T01:33:56.309Z,0
2017-02-17T01:34:56.014Z,0
2017-02-17T01:35:56.315Z,0
2017-02-17T01:36:56.363Z,0
2017-02-17T01:37:56.335Z,0
2017-02-17T01:38:56.397Z,0
2017-02-17T01:39:56.388Z,0
2017-02-17T01:40:56.402Z,0
2017-02-17T01:41:56.432Z,0
2017-02-17T01:42:56.443Z,0
2017-02-17T01:43:56.442Z,0
2017-02-17T01:44:56.480Z,0
2017-02-17T01:45:56.481Z,0
2017-02-17T01:46:56.096Z,0
2017-02-17T01:47:56.490Z,0
2017-02-17T01:48:56.525Z,0
2017-02-17T01:49:56.132Z,0
2017-02-17T01:50:56.560Z,0
2017-02-17T01:51:56.554Z,0
2017-02-17T01:52:56.577Z,0
2017-02-17T01:53:56.598Z,0
2017-02-17T01:54:56.609Z,0
2017-02-17T01:55:56.623Z,0
2017-02-17T01:56:56.640Z,0
2017-02-17T01:57:56.674Z,0
2017-02-17T01:58:56.672Z,0
2017-02-17T01:59:56.688Z,0
2017-02-17T02:00:56.721Z,0
2017-02-17T02:01:56.729Z,0
2017-02-17T02:02:56.748Z,0
2017-02-17T02:03:56.757Z,0
2017-02-17T02:04:56.756Z,0
2017-02-17T02:05:56.778Z,0
2017-02-17T02:06:56.775Z,0
2017-02-17T02:07:56.805Z,0
2017-02-17T02:08:56.814Z,0
2017-02-17T02:09:56.823Z,0
2017-02-17T02:10:56.854Z,0
2017-02-17T02:11:56.846Z,0
2017-02-17T02:12:56.879Z,0
2017-02-17T02:13:56.922Z,0
2017-02-17T02:14:56.894Z,0
2017-02-17T02:15:56.944Z,0
2017-02-17T02:16:56.918Z,0
2017-02-17T02:17:56.945Z,0
2017-02-17T02:18:56.954Z,0
2017-02-17T02:19:56.956Z,0
2017-02-17T02:20:56.988Z,0
2017-02-17T02:21:57.006Z,0
2017-02-17T02:22:57.031Z,0
2017-02-17T02:23:57.043Z,0
2017-02-17T02:24:57.039Z,0
2017-02-17T02:25:57.053Z,0
2017-02-17T02:26:57.075Z,0
2017-02-17T02:27:57.087Z,0
2017-02-17T02:28:57.112Z,0
2017-02-17T02:29:57.136Z,0
2017-02-17T02:30:57.115Z,0
2017-02-17T02:31:57.150Z,0
2017-02-17T02:32:57.144Z,0
2017-02-17T02:33:57.203Z,0
2017-02-17T02:34:57.183Z,0
2017-02-17T02:35:57.204Z,0
2017-02-17T02:36:57.230Z,0
2017-02-17T02:37:57.239Z,0
2017-02-17T02:38:57.252Z,0
2017-02-17T02:39:57.274Z,0
2017-02-17T02:40:57.280Z,0
2017-02-17T02:41:57.300Z,0
2017-02-17T02:42:57.310Z,0
2017-02-17T02:43:57.324Z,0
2017-02-17T02:44:57.329Z,0
2017-02-17T02:45:57.338Z,0
2017-02-17T02:46:57.377Z,0
2017-02-17T02:47:57.378Z,0
2017-02-17T02:48:57.398Z,0
2017-02-17T02:49:57.402Z,0
2017-02-17T02:50:57.415Z,0
2017-02-17T02:51:57.454Z,0
2017-02-17T02:52:57.442Z,0
2017-02-17T02:53:57.462Z,0
2017-02-17T02:54:57.461Z,0
2017-02-17T02:55:57.481Z,0
2017-02-17T02:56:57.492Z,0
2017-02-17T02:57:57.523Z,0
2017-02-17T02:58:57.540Z,0
2017-02-17T02:59:57.550Z,0
2017-02-17T03:00:57.579Z,0
2017-02-17T03:01:57.582Z,0
2017-02-17T03:02:57.600Z,0
2017-02-17T03:03:57.672Z,0
2017-02-17T03:04:57.689Z,0
2017-02-17T03:05:57.697Z,0
2017-02-17T03:06:57.709Z,0
2017-02-17T03:07:57.704Z,0
2017-02-17T03:08:57.710Z,0
2017-02-17T03:09:57.735Z,0
2017-02-17T03:10:57.734Z,0
2017-02-17T03:11:57.726Z,0
2017-02-17T03:12:57.730Z,0
2017-02-17T03:13:57.768Z,0
2017-02-17T03:14:57.763Z,0
2017-02-17T03:15:57.894Z,0
2017-02-17T03:16:57.838Z,0
2017-02-17T03:17:57.824Z,0
2017-02-17T03:18:57.840Z,0
2017-02-17T03:19:57.864Z,0
2017-02-17T03:20:57.857Z,0
2017-02-17T03:21:57.868Z,0
2017-02-17T03:22:57.888Z,0
2017-02-17T03:23:57.871Z,0
2017-02-17T03:24:57.890Z,0
2017-02-17T03:25:58.024Z,0
2017-02-17T03:26:58.062Z,0
2017-02-17T03:27:58.042Z,0
2017-02-17T03:28:58.037Z,0
2017-02-17T03:29:58.170Z,0
2017-02-17T03:30:58.201Z,0
2017-02-17T03:31:58.188Z,0
2017-02-17T03:32:58.201Z,0
2017-02-17T03:33:58.224Z,0
2017-02-17T03:34:58.218Z,0
2017-02-17T03:35:58.229Z,0
2017-02-17T03:36:58.228Z,0
2017-02-17T03:37:58.252Z,0
2017-02-17T03:38:58.244Z,0
2017-02-17T03:39:58.260Z,0
2017-02-17T03:40:58.272Z,0
2017-02-17T03:41:58.265Z,0
2017-02-17T03:42:58.320Z,0
2017-02-17T03:43:58.329Z,0
2017-02-17T03:44:58.328Z,0
2017-02-17T03:45:57.831Z,0
2017-02-17T03:46:58.340Z,0
2017-02-17T03:47:58.359Z,0
2017-02-17T03:48:58.355Z,0
2017-02-17T03:49:58.363Z,0
2017-02-17T03:50:58.420Z,0
2017-02-17T03:51:58.396Z,0
2017-02-17T03:52:58.371Z,0
2017-02-17T03:53:58.413Z,0
2017-02-17T03:54:58.367Z,0
2017-02-17T03:55:58.421Z,0
2017-02-17T03:56:58.386Z,0
2017-02-17T03:57:58.484Z,0
2017-02-17T03:58:58.396Z,0
2017-02-17T03:59:58.408Z,0
2017-02-17T04:00:58.467Z,0
2017-02-17T04:01:58.204Z,0
2017-02-17T04:02:58.435Z,0
2017-02-17T04:03:58.462Z,0
2017-02-17T04:04:58.462Z,0
2017-02-17T04:05:58.505Z,0
2017-02-17T04:06:58.105Z,0
2017-02-17T04:07:58.515Z,0
2017-02-17T04:08:58.557Z,0
2017-02-17T04:09:58.554Z,0
2017-02-17T04:10:58.569Z,0
2017-02-17T04:11:58.575Z,0
2017-02-17T04:12:58.590Z,0
2017-02-17T04:13:58.597Z,0
2017-02-17T04:14:58.624Z,0
2017-02-17T04:15:58.644Z,0
2017-02-17T04:16:58.640Z,0
2017-02-17T04:17:58.679Z,0
2017-02-17T04:18:58.689Z,0
2017-02-17T04:19:58.701Z,0
2017-02-17T04:20:58.702Z,0
2017-02-17T04:21:58.722Z,0
2017-02-17T04:22:58.727Z,0
2017-02-17T04:23:58.734Z,0
2017-02-17T04:24:58.764Z,0
2017-02-17T04:25:58.777Z,0
2017-02-17T04:26:58.807Z,0
2017-02-17T04:27:58.782Z,0
2017-02-17T04:28:58.816Z,0
2017-02-17T04:29:58.845Z,0
2017-02-17T04:30:58.833Z,0
2017-02-17T04:31:58.913Z,0
2017-02-17T04:32:58.896Z,0
2017-02-17T04:33:58.899Z,0
2017-02-17T04:34:58.900Z,0
2017-02-17T04:35:58.916Z,0
2017-02-17T04:36:58.939Z,0
2017-02-17T04:37:58.947Z,0
2017-02-17T04:38:58.954Z,0
2017-02-17T04:39:58.961Z,0
2017-02-17T04:40:58.971Z,0
2017-02-17T04:41:59.014Z,0
2017-02-17T04:42:59.017Z,0
2017-02-17T04:43:59.051Z,0
2017-02-17T04:44:59.032Z,0
2017-02-17T04:45:59.062Z,0
2017-02-17T04:46:59.082Z,0
2017-02-17T04:47:59.089Z,0
2017-02-17T04:48:59.084Z,0
2017-02-17T04:49:59.111Z,0
2017-02-17T04:50:59.135Z,0
2017-02-17T04:51:59.136Z,0
2017-02-17T04:52:59.173Z,0
2017-02-17T04:53:59.174Z,0
2017-02-17T04:54:59.170Z,0
2017-02-17T04:55:59.219Z,0
2017-02-17T04:56:59.455Z,0
2017-02-17T04:57:59.250Z,0
2017-02-17T04:58:59.283Z,0
2017-02-17T04:59:59.256Z,0
2017-02-17T05:00:59.280Z,0
2017-02-17T05:01:59.294Z,0
2017-02-17T05:02:59.304Z,0
2017-02-17T05:03:59.318Z,0
2017-02-17T05:04:59.331Z,0
2017-02-17T05:05:59.333Z,0
2017-02-17T05:06:59.377Z,0
2017-02-17T05:07:59.377Z,0
2017-02-17T05:08:58.974Z,0
2017-02-17T05:09:59.401Z,0
2017-02-17T05:10:59.439Z,0
2017-02-17T05:11:59.417Z,0
2017-02-17T05:12:59.035Z,0
2017-02-17T05:13:59.038Z,0
2017-02-17T05:14:59.471Z,0
2017-02-17T05:15:59.477Z,0
2017-02-17T05:16:59.490Z,0
2017-02-17T05:17:59.487Z,0
2017-02-17T05:18:59.521Z,0
2017-02-17T05:19:59.535Z,0
2017-02-17T05:20:59.555Z,0
2017-02-17T05:21:59.559Z,0
2017-02-17T05:22:59.582Z,0
2017-02-17T05:23:59.592Z,0
2017-02-17T05:24:59.591Z,0
2017-02-17T05:25:59.636Z,0
2017-02-17T05:26:59.635Z,0
2017-02-17T05:27:59.652Z,0
2017-02-17T05:28:59.669Z,0
2017-02-17T05:29:59.670Z,0
2017-02-17T05:30:59.674Z,0
2017-02-17T05:31:59.696Z,0
2017-02-17T05:32:59.691Z,0
2017-02-17T05:33:59.727Z,0
2017-02-17T05:34:59.727Z,0
2017-02-17T05:35:59.744Z,0
2017-02-17T05:36:59.777Z,0
2017-02-17T05:37:59.777Z,0
2017-02-17T05:38:59.797Z,0
2017-02-17T05:39:59.799Z,0
2017-02-17T05:40:59.834Z,0
2017-02-17T05:41:59.830Z,0
2017-02-17T05:42:59.857Z,0
2017-02-17T05:43:59.847Z,0
2017-02-17T05:44:59.914Z,0
2017-02-17T05:45:59.856Z,0
2017-02-17T05:46:59.895Z,0
2017-02-17T05:47:59.919Z,0
2017-02-17T05:49:00.037Z,0
2017-02-17T05:50:00.076Z,0
2017-02-17T05:51:00.050Z,0
2017-02-17T05:52:00.067Z,0
2017-02-17T05:53:00.054Z,0
2017-02-17T05:54:00.071Z,0
2017-02-17T05:55:00.073Z,0
2017-02-17T05:56:00.099Z,0
2017-02-17T05:57:00.104Z,0
2017-02-17T05:58:00.105Z,0
2017-02-17T05:59:00.095Z,0
2017-02-17T06:00:00.126Z,0
2017-02-17T06:01:00.248Z,0
2017-02-17T06:02:00.191Z,4
2017-02-17T06:03:00.191Z,4
2017-02-17T06:04:00.199Z,0
2017-02-17T06:05:00.204Z,0
2017-02-17T06:06:00.202Z,4
2017-02-17T06:07:00.228Z,4
2017-02-17T06:08:00.239Z,8
2017-02-17T06:09:00.275Z,4
2017-02-17T06:10:00.240Z,8
2017-02-17T06:11:00.305Z,8
2017-02-17T06:12:00.296Z,8
2017-02-17T06:12:59.971Z,8
2017-02-17T06:13:59.971Z,8
2017-02-17T06:14:59.987Z,12
2017-02-17T06:15:59.970Z,16
2017-02-17T06:17:00.001Z,16
2017-02-17T06:18:00.021Z,16
2017-02-17T06:19:00.049Z,24
2017-02-17T06:20:00.589Z,24
2017-02-17T06:21:00.590Z,24
2017-02-17T06:22:00.615Z,24
2017-02-17T06:23:00.586Z,28
2017-02-17T06:24:00.626Z,32
2017-02-17T06:25:00.214Z,32
2017-02-17T06:26:00.516Z,36
2017-02-17T06:27:00.552Z,40
2017-02-17T06:28:00.769Z,44
2017-02-17T06:29:00.688Z,44
2017-02-17T06:30:00.687Z,44
2017-02-17T06:31:00.512Z,48
2017-02-17T06:32:00.115Z,52
2017-02-17T06:33:00.551Z,56
2017-02-17T06:34:00.158Z,60
2017-02-17T06:35:00.575Z,60
2017-02-17T06:36:00.561Z,64
2017-02-17T06:37:00.553Z,68
2017-02-17T06:38:00.606Z,68
2017-02-17T06:39:00.219Z,76
2017-02-17T06:40:00.719Z,80
2017-02-17T06:41:00.622Z,88
2017-02-17T06:42:00.649Z,96
2017-02-17T06:43:00.647Z,100
2017-02-17T06:44:00.674Z,108
2017-02-17T06:45:00.684Z,112
2017-02-17T06:46:00.727Z,116
2017-02-17T06:47:00.735Z,124
2017-02-17T06:48:00.725Z,132
2017-02-17T06:49:00.752Z,136
2017-02-17T06:50:00.770Z,140
2017-02-17T06:51:00.829Z,144
2017-02-17T06:52:00.849Z,152
2017-02-17T06:53:00.877Z,168
2017-02-17T06:54:00.916Z,176
2017-02-17T06:55:00.937Z,188
2017-02-17T06:56:00.925Z,204
2017-02-17T06:57:00.924Z,192
2017-02-17T06:58:00.948Z,192
2017-02-17T06:59:00.949Z,208
2017-02-17T07:00:00.956Z,208
2017-02-17T07:01:00.911Z,216
2017-02-17T07:02:00.988Z,220
2017-02-17T07:03:01.007Z,228
2017-02-17T07:04:01.041Z,228
2017-02-17T07:05:01.021Z,232
2017-02-17T07:06:00.959Z,240
2017-02-17T07:07:09.195Z,240
2017-02-17T07:08:01.088Z,244
2017-02-17T07:09:01.048Z,252
2017-02-17T07:10:01.016Z,252
2017-02-17T07:11:01.072Z,248
2017-02-17T07:12:01.153Z,256
2017-02-17T07:13:01.111Z,268
2017-02-17T07:14:01.115Z,272
2017-02-17T07:15:01.139Z,268
2017-02-17T07:16:01.137Z,256
2017-02-17T07:17:00.747Z,260
2017-02-17T07:18:01.175Z,268
2017-02-17T07:19:01.611Z,264
2017-02-17T07:20:01.239Z,272
2017-02-17T07:21:01.265Z,280
2017-02-17T07:22:01.182Z,268
2017-02-17T07:23:01.211Z,256
2017-02-17T07:24:01.246Z,244
2017-02-17T07:25:01.427Z,252
2017-02-17T07:26:01.264Z,268
2017-02-17T07:27:01.260Z,276
2017-02-17T07:28:01.417Z,280
2017-02-17T07:29:01.260Z,280
2017-02-17T07:30:00.900Z,288
2017-02-17T07:31:01.302Z,308
2017-02-17T07:32:01.318Z,328
2017-02-17T07:33:01.346Z,352
2017-02-17T07:34:01.361Z,356
2017-02-17T07:35:01.377Z,376
2017-02-17T07:36:01.388Z,380
2017-02-17T07:37:01.375Z,396
2017-02-17T07:38:01.404Z,412
2017-02-17T07:39:01.424Z,412
2017-02-17T07:40:01.446Z,416
2017-02-17T07:41:01.434Z,444
2017-02-17T07:42:01.464Z,448
2017-02-17T07:43:01.511Z,432
2017-02-17T07:44:01.507Z,424
2017-02-17T07:45:01.513Z,448
2017-02-17T07:46:01.488Z,468
2017-02-17T07:47:01.525Z,456
2017-02-17T07:48:01.546Z,444
2017-02-17T07:49:01.553Z,464
2017-02-17T07:50:01.555Z,480
2017-02-17T07:51:01.737Z,520
2017-02-17T07:52:01.600Z,528
2017-02-17T07:53:01.599Z,536
2017-02-17T07:54:01.598Z,556
2017-02-17T07:55:01.832Z,536
2017-02-17T07:56:01.649Z,548
2017-02-17T07:57:01.672Z,532
2017-02-17T07:58:01.667Z,540
2017-02-17T07:59:01.690Z,544
2017-02-17T08:00:01.731Z,560
2017-02-17T08:01:01.724Z,556
2017-02-17T08:02:01.717Z,560
2017-02-17T08:03:01.737Z,600
2017-02-17T08:04:01.761Z,600
2017-02-17T08:05:01.777Z,568
2017-02-17T08:06:01.768Z,540
2017-02-17T08:07:01.790Z,568
2017-02-17T08:08:01.794Z,592
2017-02-17T08:09:01.828Z,600
2017-02-17T08:10:01.840Z,616
2017-02-17T08:11:01.830Z,628
2017-02-17T08:12:01.875Z,624
2017-02-17T08:13:01.864Z,620
2017-02-17T08:14:01.907Z,552
2017-02-17T08:15:01.886Z,508
2017-02-17T08:16:01.920Z,520
2017-02-17T08:17:01.930Z,576
2017-02-17T08:18:01.556Z,620
2017-02-17T08:19:01.968Z,596
2017-02-17T08:20:01.958Z,516
2017-02-17T08:21:01.991Z,456
2017-02-17T08:22:01.998Z,396
2017-02-17T08:23:02.021Z,332
2017-02-17T08:24:02.022Z,312
2017-02-17T08:25:02.016Z,312
2017-02-17T08:26:01.689Z,312
2017-02-17T08:27:02.074Z,312
2017-02-17T08:28:02.082Z,332
2017-02-17T08:29:02.091Z,364
2017-02-17T08:30:02.120Z,380
2017-02-17T08:31:02.110Z,380
2017-02-17T08:32:01.763Z,444
2017-02-17T08:33:02.142Z,512
2017-02-17T08:34:02.185Z,560
2017-02-17T08:35:02.188Z,540
2017-02-17T08:36:02.187Z,492
2017-02-17T08:37:02.217Z,516
2017-02-17T08:38:02.236Z,552
2017-02-17T08:39:02.385Z,572
2017-02-17T08:40:02.234Z,592
2017-02-17T08:41:02.264Z,612
2017-02-17T08:42:02.272Z,640
2017-02-17T08:43:02.305Z,672
2017-02-17T08:44:02.310Z,764
2017-02-17T08:45:02.309Z,892
2017-02-17T08:46:02.344Z,1000
2017-02-17T08:47:02.344Z,1040
2017-02-17T08:48:02.360Z,1088
2017-02-17T08:49:02.662Z,1128
2017-02-17T08:50:02.383Z,1196
2017-02-17T08:51:02.398Z,1224
2017-02-17T08:52:02.440Z,1176
2017-02-17T08:53:02.434Z,1156
2017-02-17T08:54:02.472Z,1172
2017-02-17T08:55:02.687Z,1148
2017-02-17T08:56:02.448Z,1096
2017-02-17T08:57:02.563Z,1048
2017-02-17T08:58:02.581Z,1056
2017-02-17T08:59:02.617Z,1092
2017-02-17T09:00:02.813Z,1104
2017-02-17T09:01:02.660Z,1060
2017-02-17T09:02:02.640Z,1068
2017-02-17T09:03:02.620Z,1124
2017-02-17T09:04:02.656Z,1260
2017-02-17T09:05:02.580Z,1328
2017-02-17T09:06:02.595Z,1384
2017-02-17T09:07:02.625Z,1436
2017-02-17T09:08:02.624Z,1460
2017-02-17T09:09:02.647Z,1352
2017-02-17T09:10:02.652Z,1204
2017-02-17T09:11:02.678Z,1096
2017-02-17T09:12:02.685Z,1044
2017-02-17T09:13:02.703Z,1032
2017-02-17T09:14:02.722Z,992
2017-02-17T09:15:02.723Z,996
2017-02-17T09:16:02.748Z,1004
2017-02-17T09:17:02.771Z,1040
2017-02-17T09:18:02.794Z,1092
2017-02-17T09:19:02.374Z,1100
2017-02-17T09:20:02.402Z,1076
2017-02-17T09:21:02.831Z,1068
2017-02-17T09:22:02.835Z,1100
2017-02-17T09:23:02.549Z,1216
2017-02-17T09:24:02.461Z,1340
2017-02-17T09:25:02.876Z,1476
2017-02-17T09:26:02.896Z,1492
2017-02-17T09:27:02.901Z,1440
2017-02-17T09:28:02.912Z,1416
2017-02-17T09:29:02.915Z,1392
2017-02-17T09:30:02.949Z,1340
2017-02-17T09:31:02.571Z,1304
2017-02-17T09:32:02.979Z,1292
2017-02-17T09:33:02.962Z,1268
2017-02-17T09:34:02.597Z,1272
2017-02-17T09:35:03.021Z,1284
2017-02-17T09:36:02.241Z,1316
2017-02-17T09:37:03.045Z,1312
2017-02-17T09:38:02.755Z,1308
2017-02-17T09:39:03.160Z,1308
2017-02-17T09:40:02.390Z,1292
2017-02-17T09:41:03.315Z,1228
2017-02-17T09:42:02.830Z,1156
2017-02-17T09:43:02.959Z,1100
2017-02-17T09:44:03.332Z,1068
2017-02-17T09:45:03.390Z,1048
2017-02-17T09:46:03.393Z,1060
2017-02-17T09:47:03.335Z,1136
2017-02-17T09:48:02.796Z,1212
2017-02-17T09:49:03.226Z,1272
2017-02-17T09:50:02.858Z,1296
2017-02-17T09:51:03.238Z,1308
2017-02-17T09:52:02.862Z,1260
2017-02-17T09:53:03.273Z,1208
2017-02-17T09:54:03.275Z,1132
2017-02-17T09:55:02.908Z,1060
2017-02-17T09:56:03.327Z,964
2017-02-17T09:57:03.330Z,964
2017-02-17T09:58:03.377Z,932
2017-02-17T09:59:03.372Z,956
2017-02-17T10:00:03.386Z,1028
2017-02-17T10:01:03.399Z,1268
2017-02-17T10:02:03.016Z,1392
2017-02-17T10:03:03.424Z,1328
2017-02-17T10:04:03.444Z,1532
2017-02-17T10:05:03.455Z,1696
2017-02-17T10:06:03.063Z,1712
2017-02-17T10:07:03.477Z,1496
2017-02-17T10:08:03.506Z,1484
2017-02-17T10:09:03.507Z,1388
2017-02-17T10:10:03.536Z,1540
2017-02-17T10:11:03.561Z,1744
2017-02-17T10:12:03.145Z,1576
2017-02-17T10:13:03.549Z,1628
2017-02-17T10:14:03.606Z,1696
2017-02-17T10:15:03.603Z,1632
2017-02-17T10:16:03.638Z,1572
2017-02-17T10:17:03.619Z,1552
2017-02-17T10:18:03.639Z,1468
2017-02-17T10:19:03.269Z,1324
2017-02-17T10:20:03.291Z,1236
2017-02-17T10:21:03.707Z,1204
2017-02-17T10:22:03.725Z,1236
2017-02-17T10:23:03.712Z,1292
2017-02-17T10:24:03.497Z,1280
2017-02-17T10:25:03.360Z,1204
2017-02-17T10:26:03.747Z,1108
2017-02-17T10:27:03.772Z,1052
2017-02-17T10:28:03.787Z,1044
2017-02-17T10:29:03.805Z,1044
2017-02-17T10:30:03.430Z,1100
2017-02-17T10:31:03.828Z,1208
2017-02-17T10:32:03.463Z,1356
2017-02-17T10:33:03.882Z,1444
2017-02-17T10:34:03.884Z,1420
2017-02-17T10:35:03.927Z,1424
2017-02-17T10:36:03.933Z,1472
2017-02-17T10:37:03.938Z,1536
2017-02-17T10:38:03.974Z,1560
2017-02-17T10:39:03.547Z,1516
2017-02-17T10:40:03.995Z,1472
2017-02-17T10:41:04.012Z,1500
2017-02-17T10:42:03.629Z,1516
2017-02-17T10:43:04.037Z,1592
2017-02-17T10:44:04.073Z,1536
2017-02-17T10:45:04.065Z,1536
2017-02-17T10:46:04.093Z,1584
2017-02-17T10:47:04.083Z,1584
2017-02-17T10:48:04.118Z,1532
2017-02-17T10:49:04.130Z,1560
2017-02-17T10:50:03.335Z,1700
2017-02-17T10:51:04.163Z,1804
2017-02-17T10:52:04.189Z,1684
2017-02-17T10:53:04.311Z,1548
2017-02-17T10:54:03.782Z,1524
2017-02-17T10:55:04.332Z,1548
2017-02-17T10:56:04.324Z,1448
2017-02-17T10:57:04.333Z,1308
2017-02-17T10:58:04.369Z,1228
2017-02-17T10:59:04.357Z,1160
2017-02-17T11:00:04.383Z,1208
2017-02-17T11:01:04.382Z,1176
2017-02-17T11:02:04.316Z,1160
2017-02-17T11:03:04.418Z,1284
2017-02-17T11:04:04.153Z,1508
2017-02-17T11:05:04.521Z,1372
2017-02-17T11:06:04.467Z,1300
2017-02-17T11:07:04.500Z,1524
2017-02-17T11:08:04.653Z,1724
2017-02-17T11:09:04.502Z,1888
2017-02-17T11:10:04.654Z,2112
2017-02-17T11:11:04.667Z,2728
2017-02-17T11:12:04.665Z,2844
2017-02-17T11:13:04.677Z,2560
2017-02-17T11:14:04.144Z,2420
2017-02-17T11:15:04.702Z,2188
2017-02-17T11:16:04.707Z,2008
2017-02-17T11:17:04.700Z,1904
2017-02-17T11:18:04.709Z,1812
2017-02-17T11:19:04.721Z,1740
2017-02-17T11:20:04.770Z,1752
2017-02-17T11:21:04.309Z,1500
2017-02-17T11:22:04.786Z,1592
2017-02-17T11:23:04.722Z,1628
2017-02-17T11:24:04.765Z,1564
2017-02-17T11:25:04.281Z,1484
2017-02-17T11:26:04.783Z,1512
2017-02-17T11:27:04.304Z,1544
2017-02-17T11:28:04.348Z,1572
2017-02-17T11:29:04.795Z,1400
2017-02-17T11:30:04.744Z,1216
2017-02-17T11:31:04.808Z,1040
2017-02-17T11:32:04.478Z,952
2017-02-17T11:33:04.841Z,968
2017-02-17T11:34:04.838Z,1108
2017-02-17T11:35:04.855Z,1160
2017-02-17T11:36:04.873Z,1116
2017-02-17T11:37:04.869Z,1104
2017-02-17T11:38:04.905Z,1108
2017-02-17T11:39:04.898Z,1160
2017-02-17T11:40:04.934Z,1224
2017-02-17T11:41:04.964Z,1276
2017-02-17T11:42:04.554Z,1272
2017-02-17T11:43:04.976Z,1244
2017-02-17T11:44:04.608Z,1148
2017-02-17T11:45:05.007Z,1100
2017-02-17T11:46:05.018Z,1120
2017-02-17T11:47:05.039Z,1268
2017-02-17T11:48:04.736Z,1416
2017-02-17T11:49:04.769Z,1756
2017-02-17T11:50:04.690Z,2028
2017-02-17T11:51:04.705Z,2012
2017-02-17T11:52:04.794Z,1940
2017-02-17T11:53:04.711Z,2036
2017-02-17T11:54:04.776Z,2116
2017-02-17T11:55:04.756Z,2296
2017-02-17T11:56:04.814Z,2228
2017-02-17T11:57:04.796Z,1836
2017-02-17T11:58:05.222Z,1632
2017-02-17T11:59:05.443Z,1316
2017-02-17T12:00:04.964Z,1052
2017-02-17T12:01:05.399Z,908
2017-02-17T12:02:05.359Z,856
2017-02-17T12:03:05.415Z,920
2017-02-17T12:04:05.434Z,760
2017-02-17T12:05:04.583Z,744
2017-02-17T12:06:05.420Z,676
2017-02-17T12:07:05.384Z,652
2017-02-17T12:08:05.393Z,536
2017-02-17T12:09:04.801Z,488
2017-02-17T12:10:05.053Z,508
2017-02-17T12:11:05.449Z,488
2017-02-17T12:12:05.415Z,496
2017-02-17T12:13:05.068Z,544
2017-02-17T12:14:05.504Z,532
2017-02-17T12:15:05.108Z,532
2017-02-17T12:16:05.562Z,508
2017-02-17T12:17:05.516Z,496
2017-02-17T12:18:05.533Z,552
2017-02-17T12:19:05.548Z,620
2017-02-17T12:20:05.576Z,684
2017-02-17T12:21:05.212Z,820
2017-02-17T12:22:05.624Z,956
2017-02-17T12:23:05.231Z,972
2017-02-17T12:24:05.243Z,832
2017-02-17T12:25:05.689Z,732
2017-02-17T12:26:05.285Z,840
2017-02-17T12:27:05.271Z,756
2017-02-17T12:28:05.356Z,556
2017-02-17T12:29:05.736Z,556
2017-02-17T12:30:05.347Z,556
2017-02-17T12:31:05.771Z,600
2017-02-17T12:32:05.808Z,608
2017-02-17T12:33:06.033Z,656
2017-02-17T12:34:05.830Z,636
2017-02-17T12:35:05.821Z,716
2017-02-17T12:36:05.837Z,936
2017-02-17T12:37:05.860Z,1132
2017-02-17T12:38:05.489Z,904
2017-02-17T12:39:05.487Z,740
2017-02-17T12:40:05.110Z,544
2017-02-17T12:41:05.504Z,524
2017-02-17T12:42:05.146Z,412
2017-02-17T12:43:05.546Z,432
2017-02-17T12:44:05.987Z,500
2017-02-17T12:45:06.074Z,452
2017-02-17T12:46:07.423Z,364
2017-02-17T12:47:05.694Z,380
2017-02-17T12:48:06.334Z,356
2017-02-17T12:49:05.640Z,388
2017-02-17T12:50:05.768Z,448
2017-02-17T12:51:05.793Z,404
2017-02-17T12:52:05.770Z,452
2017-02-17T12:53:06.299Z,516
2017-02-17T12:54:06.139Z,404
2017-02-17T12:55:06.152Z,468
2017-02-17T12:56:05.373Z,452
2017-02-17T12:57:06.243Z,460
2017-02-17T12:58:05.509Z,452
2017-02-17T12:59:06.326Z,376
2017-02-17T13:00:05.835Z,424
2017-02-17T13:01:06.258Z,476
2017-02-17T13:02:05.863Z,452
2017-02-17T13:03:06.279Z,440
2017-02-17T13:04:06.288Z,456
2017-02-17T13:05:05.912Z,464
2017-02-17T13:06:06.341Z,380
2017-02-17T13:07:06.090Z,380
2017-02-17T13:08:06.348Z,372
2017-02-17T13:09:06.406Z,392
2017-02-17T13:10:06.510Z,432
2017-02-17T13:11:06.395Z,420
2017-02-17T13:12:06.429Z,396
2017-02-17T13:13:06.457Z,388
2017-02-17T13:14:06.467Z,400
2017-02-17T13:15:06.479Z,340
2017-02-17T13:16:06.167Z,324
2017-02-17T13:17:06.514Z,280
2017-02-17T13:18:06.525Z,272
2017-02-17T13:19:06.543Z,292
2017-02-17T13:20:06.568Z,260
2017-02-17T13:21:06.563Z,284
2017-02-17T13:22:06.588Z,272
2017-02-17T13:23:06.586Z,272
2017-02-17T13:24:06.250Z,244
2017-02-17T13:25:05.607Z,260
2017-02-17T13:26:06.243Z,324
2017-02-17T13:27:06.646Z,320
2017-02-17T13:28:06.632Z,304
2017-02-17T13:29:06.723Z,316
2017-02-17T13:30:06.739Z,484
2017-02-17T13:31:05.958Z,344
2017-02-17T13:32:06.752Z,488
2017-02-17T13:33:06.451Z,580
2017-02-17T13:34:06.007Z,536
2017-02-17T13:35:06.806Z,432
2017-02-17T13:36:06.471Z,416
2017-02-17T13:37:06.064Z,416
2017-02-17T13:38:06.837Z,452
2017-02-17T13:39:06.861Z,560
2017-02-17T13:40:06.505Z,528
2017-02-17T13:41:06.913Z,528
2017-02-17T13:42:06.127Z,488
2017-02-17T13:43:06.566Z,492
2017-02-17T13:44:06.945Z,608
2017-02-17T13:45:06.578Z,636
2017-02-17T13:46:06.604Z,788
2017-02-17T13:47:06.615Z,588
2017-02-17T13:48:06.643Z,504
2017-02-17T13:49:06.781Z,516
2017-02-17T13:50:06.659Z,376
2017-02-17T13:51:07.043Z,380
2017-02-17T13:52:07.085Z,360
2017-02-17T13:53:07.059Z,424
2017-02-17T13:54:07.117Z,436
2017-02-17T13:55:07.120Z,376
2017-02-17T13:56:07.118Z,392
2017-02-17T13:57:07.147Z,300
2017-02-17T13:58:07.163Z,296
2017-02-17T13:59:07.166Z,276
2017-02-17T14:00:07.206Z,260
2017-02-17T14:01:07.203Z,272
2017-02-17T14:02:06.827Z,256
2017-02-17T14:03:07.235Z,248
2017-02-17T14:04:07.270Z,400
2017-02-17T14:05:07.288Z,376
2017-02-17T14:06:06.942Z,352
2017-02-17T14:07:07.323Z,376